sensor_id;sensor_type;location;lat;lon;timestamp;temperature;humidity
25342;DHT22;13298;48.792;9.154;2022-09-09T00:07:05;14.40;99.90
25342;DHT22;13298;48.792;9.154;2022-09-09T00:16:21;14.50;99.90
25342;DHT22;13298;48.792;9.154;2022-09-09T00:22:07;14.60;99.90
25342;DHT22;13298;48.792;9.154;2022-09-09T00:24:48;14.70;99.90
25342;DHT22;13298;48.792;9.154;2022-09-09T00:30:19;14.90;99.90
25342;DHT22;13298;48.792;9.154;2022-09-09T00:32:59;15.00;99.90
25342;DHT22;13298;48.792;9.154;2022-09-09T00:35:52;15.00;99.90
25342;DHT22;13298;48.792;9.154;2022-09-09T00:38:31;15.00;99.90
25342;DHT22;13298;48.792;9.154;2022-09-09T00:41:08;15.10;99.90
25342;DHT22;13298;48.792;9.154;2022-09-09T00:43:40;15.20;99.90
25342;DHT22;13298;48.792;9.154;2022-09-09T00:46:39;15.20;99.90
25342;DHT22;13298;48.792;9.154;2022-09-09T00:49:45;15.30;99.90
25342;DHT22;13298;48.792;9.154;2022-09-09T00:58:31;15.50;99.90
25342;DHT22;13298;48.792;9.154;2022-09-09T01:01:08;15.50;99.90
25342;DHT22;13298;48.792;9.154;2022-09-09T01:06:37;15.60;99.90
25342;DHT22;13298;48.792;9.154;2022-09-09T01:09:26;15.60;99.90
25342;DHT22;13298;48.792;9.154;2022-09-09T01:12:14;15.60;99.90
25342;DHT22;13298;48.792;9.154;2022-09-09T01:15:10;15.60;99.90
25342;DHT22;13298;48.792;9.154;2022-09-09T01:20:35;15.60;99.90
25342;DHT22;13298;48.792;9.154;2022-09-09T01:23:34;15.60;99.90
25342;DHT22;13298;48.792;9.154;2022-09-09T01:29:14;15.50;99.90
25342;DHT22;13298;48.792;9.154;2022-09-09T01:31:55;15.50;99.90
25342;DHT22;13298;48.792;9.154;2022-09-09T01:34:25;15.40;99.90
25342;DHT22;13298;48.792;9.154;2022-09-09T01:37:09;15.40;99.90
25342;DHT22;13298;48.792;9.154;2022-09-09T01:39:38;15.40;99.90
25342;DHT22;13298;48.792;9.154;2022-09-09T01:42:07;15.30;99.90
25342;DHT22;13298;48.792;9.154;2022-09-09T01:44:34;15.30;99.90
25342;DHT22;13298;48.792;9.154;2022-09-09T01:47:01;15.30;99.90
25342;DHT22;13298;48.792;9.154;2022-09-09T01:49:27;15.40;99.90
25342;DHT22;13298;48.792;9.154;2022-09-09T01:51:54;15.40;99.90
25342;DHT22;13298;48.792;9.154;2022-09-09T01:54:23;15.40;99.90
25342;DHT22;13298;48.792;9.154;2022-09-09T01:59:57;15.30;99.90
25342;DHT22;13298;48.792;9.154;2022-09-09T02:05:27;15.20;99.90
25342;DHT22;13298;48.792;9.154;2022-09-09T02:08:17;15.10;99.90
25342;DHT22;13298;48.792;9.154;2022-09-09T02:11:23;15.00;99.90
25342;DHT22;13298;48.792;9.154;2022-09-09T02:16:52;14.70;99.90
25342;DHT22;13298;48.792;9.154;2022-09-09T02:19:23;14.60;99.90
25342;DHT22;13298;48.792;9.154;2022-09-09T02:21:55;14.50;99.90
25342;DHT22;13298;48.792;9.154;2022-09-09T02:24:21;14.50;99.90
25342;DHT22;13298;48.792;9.154;2022-09-09T02:26:50;14.50;99.90
25342;DHT22;13298;48.792;9.154;2022-09-09T02:29:22;14.40;99.90
25342;DHT22;13298;48.792;9.154;2022-09-09T02:31:51;14.40;99.90
25342;DHT22;13298;48.792;9.154;2022-09-09T02:34:22;14.30;99.90
25342;DHT22;13298;48.792;9.154;2022-09-09T02:36:50;14.20;99.90
25342;DHT22;13298;48.792;9.154;2022-09-09T02:39:17;14.30;99.90
25342;DHT22;13298;48.792;9.154;2022-09-09T02:41:43;14.20;99.90
25342;DHT22;13298;48.792;9.154;2022-09-09T02:44:14;14.20;99.90
25342;DHT22;13298;48.792;9.154;2022-09-09T02:52:14;14.00;99.90
25342;DHT22;13298;48.792;9.154;2022-09-09T02:54:44;14.00;99.90
25342;DHT22;13298;48.792;9.154;2022-09-09T02:57:21;13.90;99.90
25342;DHT22;13298;48.792;9.154;2022-09-09T02:59:49;13.90;99.90
25342;DHT22;13298;48.792;9.154;2022-09-09T03:02:15;13.80;99.90
25342;DHT22;13298;48.792;9.154;2022-09-09T03:04:41;13.70;99.90
25342;DHT22;13298;48.792;9.154;2022-09-09T03:07:10;13.60;99.90
25342;DHT22;13298;48.792;9.154;2022-09-09T03:09:36;13.60;99.90
25342;DHT22;13298;48.792;9.154;2022-09-09T03:12:02;13.60;99.90
25342;DHT22;13298;48.792;9.154;2022-09-09T03:14:29;13.60;99.90
25342;DHT22;13298;48.792;9.154;2022-09-09T03:16:55;13.60;99.90
25342;DHT22;13298;48.792;9.154;2022-09-09T03:19:23;13.60;99.90
25342;DHT22;13298;48.792;9.154;2022-09-09T03:21:49;13.60;99.90
25342;DHT22;13298;48.792;9.154;2022-09-09T03:24:15;13.60;99.90
25342;DHT22;13298;48.792;9.154;2022-09-09T03:26:41;13.60;99.90
25342;DHT22;13298;48.792;9.154;2022-09-09T03:29:10;13.60;99.90
25342;DHT22;13298;48.792;9.154;2022-09-09T03:31:38;13.70;99.90
25342;DHT22;13298;48.792;9.154;2022-09-09T03:34:04;13.70;99.90
25342;DHT22;13298;48.792;9.154;2022-09-09T03:36:30;13.70;99.90
25342;DHT22;13298;48.792;9.154;2022-09-09T03:38:56;13.70;99.90
25342;DHT22;13298;48.792;9.154;2022-09-09T03:41:23;13.70;99.90
25342;DHT22;13298;48.792;9.154;2022-09-09T03:43:53;13.70;99.90
25342;DHT22;13298;48.792;9.154;2022-09-09T03:46:20;13.60;99.90
25342;DHT22;13298;48.792;9.154;2022-09-09T03:48:47;13.60;99.90
25342;DHT22;13298;48.792;9.154;2022-09-09T03:51:13;13.70;99.90
25342;DHT22;13298;48.792;9.154;2022-09-09T03:53:38;13.70;99.90
25342;DHT22;13298;48.792;9.154;2022-09-09T03:56:05;13.80;99.90
25342;DHT22;13298;48.792;9.154;2022-09-09T03:58:33;13.80;99.90
25342;DHT22;13298;48.792;9.154;2022-09-09T04:01:02;13.90;99.90
25342;DHT22;13298;48.792;9.154;2022-09-09T04:03:29;13.90;99.90
25342;DHT22;13298;48.792;9.154;2022-09-09T04:05:57;14.00;99.90
25342;DHT22;13298;48.792;9.154;2022-09-09T04:08:24;14.10;99.90
25342;DHT22;13298;48.792;9.154;2022-09-09T04:10:53;14.20;99.90
25342;DHT22;13298;48.792;9.154;2022-09-09T04:13:23;14.30;99.90
25342;DHT22;13298;48.792;9.154;2022-09-09T04:15:52;14.40;99.90
25342;DHT22;13298;48.792;9.154;2022-09-09T04:18:22;14.50;99.90
25342;DHT22;13298;48.792;9.154;2022-09-09T04:20:50;14.60;99.90
25342;DHT22;13298;48.792;9.154;2022-09-09T04:23:17;14.60;99.90
25342;DHT22;13298;48.792;9.154;2022-09-09T04:25:48;14.70;99.90
25342;DHT22;13298;48.792;9.154;2022-09-09T04:28:16;14.70;99.90
25342;DHT22;13298;48.792;9.154;2022-09-09T04:30:43;14.70;99.90
25342;DHT22;13298;48.792;9.154;2022-09-09T04:33:09;14.70;99.90
25342;DHT22;13298;48.792;9.154;2022-09-09T04:35:35;14.70;99.90
25342;DHT22;13298;48.792;9.154;2022-09-09T04:38:02;14.80;99.90
25342;DHT22;13298;48.792;9.154;2022-09-09T04:40:29;14.80;99.90
25342;DHT22;13298;48.792;9.154;2022-09-09T04:42:57;14.80;99.90
25342;DHT22;13298;48.792;9.154;2022-09-09T04:45:23;14.80;99.90
25342;DHT22;13298;48.792;9.154;2022-09-09T04:47:49;14.80;99.90
25342;DHT22;13298;48.792;9.154;2022-09-09T04:50:15;14.80;99.90
25342;DHT22;13298;48.792;9.154;2022-09-09T04:52:41;14.80;99.90
25342;DHT22;13298;48.792;9.154;2022-09-09T04:55:08;14.70;99.90
25342;DHT22;13298;48.792;9.154;2022-09-09T04:57:35;14.60;99.90
25342;DHT22;13298;48.792;9.154;2022-09-09T05:00:00;14.60;99.90
25342;DHT22;13298;48.792;9.154;2022-09-09T05:02:27;14.50;99.90
25342;DHT22;13298;48.792;9.154;2022-09-09T05:04:53;14.50;99.90
25342;DHT22;13298;48.792;9.154;2022-09-09T05:07:19;14.50;99.90
25342;DHT22;13298;48.792;9.154;2022-09-09T05:09:45;14.40;99.90
25342;DHT22;13298;48.792;9.154;2022-09-09T05:12:10;14.30;99.90
25342;DHT22;13298;48.792;9.154;2022-09-09T05:14:36;14.30;99.90
25342;DHT22;13298;48.792;9.154;2022-09-09T05:17:03;14.30;99.90
25342;DHT22;13298;48.792;9.154;2022-09-09T05:19:29;14.50;99.90
25342;DHT22;13298;48.792;9.154;2022-09-09T05:21:55;14.60;99.90
25342;DHT22;13298;48.792;9.154;2022-09-09T05:24:22;14.80;99.90
25342;DHT22;13298;48.792;9.154;2022-09-09T05:26:51;14.90;99.90
25342;DHT22;13298;48.792;9.154;2022-09-09T05:29:17;15.00;99.90
25342;DHT22;13298;48.792;9.154;2022-09-09T05:31:45;15.10;99.90
25342;DHT22;13298;48.792;9.154;2022-09-09T05:34:11;15.20;99.90
25342;DHT22;13298;48.792;9.154;2022-09-09T05:36:37;15.30;99.90
25342;DHT22;13298;48.792;9.154;2022-09-09T05:39:03;15.30;99.90
25342;DHT22;13298;48.792;9.154;2022-09-09T05:41:29;15.40;99.90
25342;DHT22;13298;48.792;9.154;2022-09-09T05:43:56;15.50;99.90
25342;DHT22;13298;48.792;9.154;2022-09-09T05:46:24;15.50;99.90
25342;DHT22;13298;48.792;9.154;2022-09-09T05:48:51;15.50;99.90
25342;DHT22;13298;48.792;9.154;2022-09-09T05:51:19;15.50;99.90
25342;DHT22;13298;48.792;9.154;2022-09-09T05:53:47;15.50;99.90
25342;DHT22;13298;48.792;9.154;2022-09-09T05:58:40;15.60;99.90
25342;DHT22;13298;48.792;9.154;2022-09-09T06:01:10;15.70;99.90
25342;DHT22;13298;48.792;9.154;2022-09-09T06:03:38;15.80;99.90
25342;DHT22;13298;48.792;9.154;2022-09-09T06:06:08;15.80;99.90
25342;DHT22;13298;48.792;9.154;2022-09-09T06:08:39;15.90;99.90
25342;DHT22;13298;48.792;9.154;2022-09-09T06:13:39;16.10;99.90
25342;DHT22;13298;48.792;9.154;2022-09-09T06:16:10;16.20;99.90
25342;DHT22;13298;48.792;9.154;2022-09-09T06:18:37;16.30;99.90
25342;DHT22;13298;48.792;9.154;2022-09-09T06:21:06;16.30;99.90
25342;DHT22;13298;48.792;9.154;2022-09-09T06:23:34;16.40;99.90
25342;DHT22;13298;48.792;9.154;2022-09-09T06:26:04;16.50;99.90
25342;DHT22;13298;48.792;9.154;2022-09-09T06:28:32;16.60;99.90
25342;DHT22;13298;48.792;9.154;2022-09-09T06:31:03;16.70;99.90
25342;DHT22;13298;48.792;9.154;2022-09-09T06:33:37;16.70;99.90
25342;DHT22;13298;48.792;9.154;2022-09-09T06:36:16;16.80;99.90
25342;DHT22;13298;48.792;9.154;2022-09-09T06:38:44;16.80;99.90
25342;DHT22;13298;48.792;9.154;2022-09-09T06:41:12;16.80;99.90
25342;DHT22;13298;48.792;9.154;2022-09-09T06:43:39;16.80;99.90
25342;DHT22;13298;48.792;9.154;2022-09-09T06:46:12;16.80;99.90
25342;DHT22;13298;48.792;9.154;2022-09-09T06:48:39;16.90;99.90
25342;DHT22;13298;48.792;9.154;2022-09-09T06:53:47;17.00;99.90
25342;DHT22;13298;48.792;9.154;2022-09-09T06:56:35;17.00;99.90
25342;DHT22;13298;48.792;9.154;2022-09-09T06:59:04;17.10;99.90
25342;DHT22;13298;48.792;9.154;2022-09-09T07:01:33;17.10;99.90
25342;DHT22;13298;48.792;9.154;2022-09-09T07:04:01;17.10;99.90
25342;DHT22;13298;48.792;9.154;2022-09-09T07:06:31;17.20;99.90
25342;DHT22;13298;48.792;9.154;2022-09-09T07:09:04;17.30;99.90
25342;DHT22;13298;48.792;9.154;2022-09-09T07:11:34;17.40;99.90
25342;DHT22;13298;48.792;9.154;2022-09-09T07:14:03;17.50;99.90
25342;DHT22;13298;48.792;9.154;2022-09-09T07:16:29;17.50;99.90
25342;DHT22;13298;48.792;9.154;2022-09-09T07:18:56;17.60;99.90
25342;DHT22;13298;48.792;9.154;2022-09-09T07:21:27;17.70;99.90
25342;DHT22;13298;48.792;9.154;2022-09-09T07:23:53;17.70;99.90
25342;DHT22;13298;48.792;9.154;2022-09-09T07:26:21;17.80;99.90
25342;DHT22;13298;48.792;9.154;2022-09-09T07:28:49;17.90;99.90
25342;DHT22;13298;48.792;9.154;2022-09-09T07:31:22;18.00;99.90
25342;DHT22;13298;48.792;9.154;2022-09-09T07:33:50;18.10;99.90
25342;DHT22;13298;48.792;9.154;2022-09-09T07:36:21;18.20;99.90
25342;DHT22;13298;48.792;9.154;2022-09-09T07:38:59;18.40;99.90
25342;DHT22;13298;48.792;9.154;2022-09-09T07:41:32;18.60;99.90
25342;DHT22;13298;48.792;9.154;2022-09-09T07:44:14;18.80;99.90
25342;DHT22;13298;48.792;9.154;2022-09-09T07:46:46;19.10;99.90
25342;DHT22;13298;48.792;9.154;2022-09-09T07:49:13;19.20;99.90
25342;DHT22;13298;48.792;9.154;2022-09-09T07:51:41;19.20;99.90
25342;DHT22;13298;48.792;9.154;2022-09-09T07:54:11;19.10;99.90
25342;DHT22;13298;48.792;9.154;2022-09-09T07:56:39;18.90;99.90
25342;DHT22;13298;48.792;9.154;2022-09-09T07:59:05;18.70;99.90
25342;DHT22;13298;48.792;9.154;2022-09-09T08:01:40;18.70;99.90
25342;DHT22;13298;48.792;9.154;2022-09-09T08:04:13;18.80;99.90
25342;DHT22;13298;48.792;9.154;2022-09-09T08:06:45;19.00;99.90
25342;DHT22;13298;48.792;9.154;2022-09-09T08:09:13;19.20;99.90
25342;DHT22;13298;48.792;9.154;2022-09-09T08:11:39;19.40;99.90
25342;DHT22;13298;48.792;9.154;2022-09-09T08:14:07;19.60;99.90
25342;DHT22;13298;48.792;9.154;2022-09-09T08:16:39;19.70;99.90
25342;DHT22;13298;48.792;9.154;2022-09-09T08:19:07;19.70;99.90
25342;DHT22;13298;48.792;9.154;2022-09-09T08:21:34;19.70;99.90
25342;DHT22;13298;48.792;9.154;2022-09-09T08:24:02;19.70;99.90
25342;DHT22;13298;48.792;9.154;2022-09-09T08:26:35;19.60;99.90
25342;DHT22;13298;48.792;9.154;2022-09-09T08:29:03;19.60;99.90
25342;DHT22;13298;48.792;9.154;2022-09-09T08:31:33;19.60;99.90
25342;DHT22;13298;48.792;9.154;2022-09-09T08:34:03;19.70;99.90
25342;DHT22;13298;48.792;9.154;2022-09-09T08:36:31;19.90;99.90
25342;DHT22;13298;48.792;9.154;2022-09-09T08:38:59;20.10;99.90
25342;DHT22;13298;48.792;9.154;2022-09-09T08:47:18;19.90;99.90
25342;DHT22;13298;48.792;9.154;2022-09-09T08:50:28;19.90;99.90
25342;DHT22;13298;48.792;9.154;2022-09-09T08:53:17;19.90;99.90
25342;DHT22;13298;48.792;9.154;2022-09-09T08:55:54;20.10;99.90
25342;DHT22;13298;48.792;9.154;2022-09-09T08:58:33;20.20;99.90
25342;DHT22;13298;48.792;9.154;2022-09-09T09:09:25;20.30;99.90
25342;DHT22;13298;48.792;9.154;2022-09-09T09:12:17;20.30;99.90
25342;DHT22;13298;48.792;9.154;2022-09-09T09:14:46;20.40;99.90
25342;DHT22;13298;48.792;9.154;2022-09-09T09:17:17;20.50;99.90
25342;DHT22;13298;48.792;9.154;2022-09-09T09:19:45;20.50;99.90
25342;DHT22;13298;48.792;9.154;2022-09-09T09:22:25;20.50;99.90
25342;DHT22;13298;48.792;9.154;2022-09-09T09:25:17;20.50;99.90
25342;DHT22;13298;48.792;9.154;2022-09-09T09:27:52;20.30;99.90
25342;DHT22;13298;48.792;9.154;2022-09-09T09:30:42;20.10;99.90
25342;DHT22;13298;48.792;9.154;2022-09-09T09:33:49;19.90;99.90
25342;DHT22;13298;48.792;9.154;2022-09-09T09:36:18;19.60;99.90
25342;DHT22;13298;48.792;9.154;2022-09-09T09:39:01;19.40;99.90
25342;DHT22;13298;48.792;9.154;2022-09-09T09:41:42;19.10;99.90
25342;DHT22;13298;48.792;9.154;2022-09-09T09:47:04;18.60;99.90
25342;DHT22;13298;48.792;9.154;2022-09-09T09:49:55;18.40;99.90
25342;DHT22;13298;48.792;9.154;2022-09-09T09:52:31;18.50;99.90
25342;DHT22;13298;48.792;9.154;2022-09-09T09:54:58;18.50;99.90
25342;DHT22;13298;48.792;9.154;2022-09-09T09:57:30;18.70;99.90
25342;DHT22;13298;48.792;9.154;2022-09-09T10:00:12;18.80;99.90
25342;DHT22;13298;48.792;9.154;2022-09-09T10:02:46;18.90;99.90
25342;DHT22;13298;48.792;9.154;2022-09-09T10:05:17;19.00;99.90
25342;DHT22;13298;48.792;9.154;2022-09-09T10:08:02;19.20;99.90
25342;DHT22;13298;48.792;9.154;2022-09-09T10:20:20;19.70;99.90
25342;DHT22;13298;48.792;9.154;2022-09-09T10:29:30;20.00;99.90
25342;DHT22;13298;48.792;9.154;2022-09-09T10:32:31;20.20;99.90
25342;DHT22;13298;48.792;9.154;2022-09-09T10:35:38;20.50;99.90
25342;DHT22;13298;48.792;9.154;2022-09-09T10:38:26;20.90;99.90
25342;DHT22;13298;48.792;9.154;2022-09-09T10:43:46;21.40;99.90
25342;DHT22;13298;48.792;9.154;2022-09-09T10:46:31;21.60;98.60
25342;DHT22;13298;48.792;9.154;2022-09-09T10:49:29;21.70;99.20
25342;DHT22;13298;48.792;9.154;2022-09-09T10:52:23;22.10;98.30
25342;DHT22;13298;48.792;9.154;2022-09-09T10:55:07;22.60;98.20
25342;DHT22;13298;48.792;9.154;2022-09-09T10:57:47;23.10;96.10
25342;DHT22;13298;48.792;9.154;2022-09-09T11:00:23;23.40;97.40
25342;DHT22;13298;48.792;9.154;2022-09-09T11:02:57;23.40;97.20
25342;DHT22;13298;48.792;9.154;2022-09-09T11:05:39;23.70;98.10
25342;DHT22;13298;48.792;9.154;2022-09-09T11:08:14;23.80;97.10
25342;DHT22;13298;48.792;9.154;2022-09-09T11:11:09;23.70;96.00
25342;DHT22;13298;48.792;9.154;2022-09-09T11:16:29;22.50;94.60
25342;DHT22;13298;48.792;9.154;2022-09-09T11:19:03;21.90;96.30
25342;DHT22;13298;48.792;9.154;2022-09-09T11:21:42;21.50;97.20
25342;DHT22;13298;48.792;9.154;2022-09-09T11:24:16;21.00;96.70
25342;DHT22;13298;48.792;9.154;2022-09-09T11:26:55;20.80;97.10
25342;DHT22;13298;48.792;9.154;2022-09-09T11:30:02;20.60;96.90
25342;DHT22;13298;48.792;9.154;2022-09-09T11:36:02;20.30;97.00
25342;DHT22;13298;48.792;9.154;2022-09-09T11:39:01;20.40;98.10
25342;DHT22;13298;48.792;9.154;2022-09-09T11:41:37;20.60;98.40
25342;DHT22;13298;48.792;9.154;2022-09-09T11:44:11;20.60;97.90
25342;DHT22;13298;48.792;9.154;2022-09-09T11:46:40;20.50;98.20
25342;DHT22;13298;48.792;9.154;2022-09-09T11:49:28;20.50;98.80
25342;DHT22;13298;48.792;9.154;2022-09-09T11:51:56;20.50;98.80
25342;DHT22;13298;48.792;9.154;2022-09-09T11:54:31;20.50;99.10
25342;DHT22;13298;48.792;9.154;2022-09-09T11:56:58;20.60;99.40
25342;DHT22;13298;48.792;9.154;2022-09-09T11:59:26;20.70;98.20
25342;DHT22;13298;48.792;9.154;2022-09-09T12:01:57;20.60;97.70
25342;DHT22;13298;48.792;9.154;2022-09-09T12:10:38;20.70;98.40
25342;DHT22;13298;48.792;9.154;2022-09-09T12:13:20;20.90;97.50
25342;DHT22;13298;48.792;9.154;2022-09-09T12:15:50;21.00;97.50
25342;DHT22;13298;48.792;9.154;2022-09-09T12:18:31;21.20;97.40
25342;DHT22;13298;48.792;9.154;2022-09-09T12:23:49;21.00;96.90
25342;DHT22;13298;48.792;9.154;2022-09-09T12:26:50;20.80;96.60
25342;DHT22;13298;48.792;9.154;2022-09-09T12:29:47;20.60;96.40
25342;DHT22;13298;48.792;9.154;2022-09-09T12:32:23;20.60;96.80
25342;DHT22;13298;48.792;9.154;2022-09-09T12:37:41;20.50;95.50
25342;DHT22;13298;48.792;9.154;2022-09-09T12:40:24;20.40;94.70
25342;DHT22;13298;48.792;9.154;2022-09-09T12:42:54;20.10;96.20
25342;DHT22;13298;48.792;9.154;2022-09-09T12:45:23;20.10;96.10
25342;DHT22;13298;48.792;9.154;2022-09-09T12:50:44;20.40;95.20
25342;DHT22;13298;48.792;9.154;2022-09-09T12:53:21;20.50;95.50
25342;DHT22;13298;48.792;9.154;2022-09-09T12:58:45;20.50;96.30
25342;DHT22;13298;48.792;9.154;2022-09-09T13:01:18;20.60;96.50
25342;DHT22;13298;48.792;9.154;2022-09-09T13:03:47;20.60;96.40
25342;DHT22;13298;48.792;9.154;2022-09-09T13:06:24;20.60;95.80
25342;DHT22;13298;48.792;9.154;2022-09-09T13:08:52;20.60;96.50
25342;DHT22;13298;48.792;9.154;2022-09-09T13:11:23;20.80;95.50
25342;DHT22;13298;48.792;9.154;2022-09-09T13:14:00;21.10;94.70
25342;DHT22;13298;48.792;9.154;2022-09-09T13:16:28;21.30;95.10
25342;DHT22;13298;48.792;9.154;2022-09-09T13:19:00;21.50;94.60
25342;DHT22;13298;48.792;9.154;2022-09-09T13:21:32;21.40;94.90
25342;DHT22;13298;48.792;9.154;2022-09-09T13:24:07;21.40;94.70
25342;DHT22;13298;48.792;9.154;2022-09-09T13:27:05;21.40;94.60
25342;DHT22;13298;48.792;9.154;2022-09-09T13:29:54;21.50;94.10
25342;DHT22;13298;48.792;9.154;2022-09-09T13:32:20;21.70;95.50
25342;DHT22;13298;48.792;9.154;2022-09-09T13:34:57;21.80;94.90
25342;DHT22;13298;48.792;9.154;2022-09-09T13:37:27;21.70;94.00
25342;DHT22;13298;48.792;9.154;2022-09-09T13:40:01;21.80;94.00
25342;DHT22;13298;48.792;9.154;2022-09-09T13:42:30;21.80;94.30
25342;DHT22;13298;48.792;9.154;2022-09-09T13:44:59;21.80;93.40
25342;DHT22;13298;48.792;9.154;2022-09-09T13:47:31;21.80;93.50
25342;DHT22;13298;48.792;9.154;2022-09-09T13:50:30;21.80;92.80
25342;DHT22;13298;48.792;9.154;2022-09-09T13:52:58;21.70;92.80
25342;DHT22;13298;48.792;9.154;2022-09-09T13:55:26;21.80;92.30
25342;DHT22;13298;48.792;9.154;2022-09-09T13:58:03;21.90;92.00
25342;DHT22;13298;48.792;9.154;2022-09-09T14:00:32;22.10;92.50
25342;DHT22;13298;48.792;9.154;2022-09-09T14:02:59;22.50;91.60
25342;DHT22;13298;48.792;9.154;2022-09-09T14:05:29;22.80;90.70
25342;DHT22;13298;48.792;9.154;2022-09-09T14:07:57;22.80;89.50
25342;DHT22;13298;48.792;9.154;2022-09-09T14:10:23;22.60;88.50
25342;DHT22;13298;48.792;9.154;2022-09-09T14:12:48;22.60;89.50
25342;DHT22;13298;48.792;9.154;2022-09-09T14:15:14;22.60;88.60
25342;DHT22;13298;48.792;9.154;2022-09-09T14:17:40;22.60;87.30
25342;DHT22;13298;48.792;9.154;2022-09-09T14:20:07;22.60;86.90
25342;DHT22;13298;48.792;9.154;2022-09-09T14:22:35;22.50;87.20
25342;DHT22;13298;48.792;9.154;2022-09-09T14:25:02;22.20;87.60
25342;DHT22;13298;48.792;9.154;2022-09-09T14:27:28;21.80;89.60
25342;DHT22;13298;48.792;9.154;2022-09-09T14:29:55;21.50;90.00
25342;DHT22;13298;48.792;9.154;2022-09-09T14:32:21;21.30;90.70
25342;DHT22;13298;48.792;9.154;2022-09-09T14:34:47;21.20;91.10
25342;DHT22;13298;48.792;9.154;2022-09-09T14:37:17;21.10;90.90
25342;DHT22;13298;48.792;9.154;2022-09-09T14:39:43;21.00;90.80
25342;DHT22;13298;48.792;9.154;2022-09-09T14:42:10;21.00;89.40
25342;DHT22;13298;48.792;9.154;2022-09-09T14:44:36;21.10;89.80
25342;DHT22;13298;48.792;9.154;2022-09-09T14:47:07;21.10;89.50
25342;DHT22;13298;48.792;9.154;2022-09-09T14:49:36;21.40;90.20
25342;DHT22;13298;48.792;9.154;2022-09-09T14:52:02;21.80;90.10
25342;DHT22;13298;48.792;9.154;2022-09-09T14:54:29;22.10;89.40
25342;DHT22;13298;48.792;9.154;2022-09-09T14:56:55;22.20;88.90
25342;DHT22;13298;48.792;9.154;2022-09-09T14:59:21;22.30;88.00
25342;DHT22;13298;48.792;9.154;2022-09-09T15:01:47;22.30;87.50
25342;DHT22;13298;48.792;9.154;2022-09-09T15:04:13;22.30;88.70
25342;DHT22;13298;48.792;9.154;2022-09-09T15:06:45;22.30;84.60
25342;DHT22;13298;48.792;9.154;2022-09-09T15:09:14;22.20;85.60
25342;DHT22;13298;48.792;9.154;2022-09-09T15:11:40;22.10;85.60
25342;DHT22;13298;48.792;9.154;2022-09-09T15:14:07;22.00;87.50
25342;DHT22;13298;48.792;9.154;2022-09-09T15:16:34;21.80;89.60
25342;DHT22;13298;48.792;9.154;2022-09-09T15:19:01;21.70;89.50
25342;DHT22;13298;48.792;9.154;2022-09-09T15:21:30;21.60;90.50
25342;DHT22;13298;48.792;9.154;2022-09-09T15:24:00;21.50;89.70
25342;DHT22;13298;48.792;9.154;2022-09-09T15:26:26;21.40;89.20
25342;DHT22;13298;48.792;9.154;2022-09-09T15:28:53;21.30;89.00
25342;DHT22;13298;48.792;9.154;2022-09-09T15:31:22;21.20;89.20
25342;DHT22;13298;48.792;9.154;2022-09-09T15:33:54;21.10;89.70
25342;DHT22;13298;48.792;9.154;2022-09-09T15:36:28;21.00;91.00
25342;DHT22;13298;48.792;9.154;2022-09-09T15:38:55;21.00;90.50
25342;DHT22;13298;48.792;9.154;2022-09-09T15:41:22;20.90;90.90
25342;DHT22;13298;48.792;9.154;2022-09-09T15:43:50;21.00;91.10
25342;DHT22;13298;48.792;9.154;2022-09-09T15:48:43;20.90;91.40
25342;DHT22;13298;48.792;9.154;2022-09-09T15:51:10;20.70;91.40
25342;DHT22;13298;48.792;9.154;2022-09-09T15:53:40;20.50;90.80
25342;DHT22;13298;48.792;9.154;2022-09-09T15:56:09;20.40;91.80
25342;DHT22;13298;48.792;9.154;2022-09-09T15:58:35;20.20;92.30
25342;DHT22;13298;48.792;9.154;2022-09-09T16:01:09;20.10;92.50
25342;DHT22;13298;48.792;9.154;2022-09-09T16:03:36;20.00;92.00
25342;DHT22;13298;48.792;9.154;2022-09-09T16:06:03;19.90;92.40
25342;DHT22;13298;48.792;9.154;2022-09-09T16:08:38;19.90;92.90
25342;DHT22;13298;48.792;9.154;2022-09-09T16:11:10;19.90;92.50
25342;DHT22;13298;48.792;9.154;2022-09-09T16:13:40;19.80;93.10
25342;DHT22;13298;48.792;9.154;2022-09-09T16:16:07;19.80;93.30
25342;DHT22;13298;48.792;9.154;2022-09-09T16:18:36;19.70;92.80
25342;DHT22;13298;48.792;9.154;2022-09-09T16:21:04;19.70;92.70
25342;DHT22;13298;48.792;9.154;2022-09-09T16:23:34;19.70;92.70
25342;DHT22;13298;48.792;9.154;2022-09-09T16:26:01;19.60;92.60
25342;DHT22;13298;48.792;9.154;2022-09-09T16:28:27;19.60;93.20
25342;DHT22;13298;48.792;9.154;2022-09-09T16:30:53;19.50;94.00
25342;DHT22;13298;48.792;9.154;2022-09-09T16:33:19;19.40;94.40
25342;DHT22;13298;48.792;9.154;2022-09-09T16:35:45;19.40;94.70
25342;DHT22;13298;48.792;9.154;2022-09-09T16:38:11;19.30;95.30
25342;DHT22;13298;48.792;9.154;2022-09-09T16:40:37;19.20;95.60
25342;DHT22;13298;48.792;9.154;2022-09-09T16:43:07;19.00;95.90
25342;DHT22;13298;48.792;9.154;2022-09-09T16:45:33;18.90;95.50
25342;DHT22;13298;48.792;9.154;2022-09-09T16:47:59;18.80;95.50
25342;DHT22;13298;48.792;9.154;2022-09-09T16:50:26;18.70;96.60
25342;DHT22;13298;48.792;9.154;2022-09-09T16:52:52;18.70;95.60
25342;DHT22;13298;48.792;9.154;2022-09-09T16:55:18;18.60;95.60
25342;DHT22;13298;48.792;9.154;2022-09-09T16:57:46;18.50;96.40
25342;DHT22;13298;48.792;9.154;2022-09-09T17:00:14;18.50;96.50
25342;DHT22;13298;48.792;9.154;2022-09-09T17:02:42;18.30;97.60
25342;DHT22;13298;48.792;9.154;2022-09-09T17:05:09;18.10;98.20
25342;DHT22;13298;48.792;9.154;2022-09-09T17:07:35;18.10;98.20
25342;DHT22;13298;48.792;9.154;2022-09-09T17:10:01;17.90;98.80
25342;DHT22;13298;48.792;9.154;2022-09-09T17:12:27;17.80;98.80
25342;DHT22;13298;48.792;9.154;2022-09-09T17:14:53;17.60;99.40
25342;DHT22;13298;48.792;9.154;2022-09-09T17:17:20;17.40;99.40
25342;DHT22;13298;48.792;9.154;2022-09-09T17:19:46;17.10;99.50
25342;DHT22;13298;48.792;9.154;2022-09-09T17:22:12;17.00;99.90
25342;DHT22;13298;48.792;9.154;2022-09-09T17:24:38;16.80;99.90
25342;DHT22;13298;48.792;9.154;2022-09-09T17:27:06;16.60;99.90
25342;DHT22;13298;48.792;9.154;2022-09-09T17:29:31;16.50;99.90
25342;DHT22;13298;48.792;9.154;2022-09-09T17:31:57;16.40;99.90
25342;DHT22;13298;48.792;9.154;2022-09-09T17:34:23;16.30;99.90
25342;DHT22;13298;48.792;9.154;2022-09-09T17:36:50;16.20;99.90
25342;DHT22;13298;48.792;9.154;2022-09-09T17:39:16;16.10;99.90
25342;DHT22;13298;48.792;9.154;2022-09-09T17:41:42;16.10;99.90
25342;DHT22;13298;48.792;9.154;2022-09-09T17:44:08;16.00;99.90
25342;DHT22;13298;48.792;9.154;2022-09-09T17:46:36;16.00;99.90
25342;DHT22;13298;48.792;9.154;2022-09-09T17:49:09;16.00;99.90
25342;DHT22;13298;48.792;9.154;2022-09-09T17:51:40;16.00;99.90
25342;DHT22;13298;48.792;9.154;2022-09-09T17:54:12;16.00;99.90
25342;DHT22;13298;48.792;9.154;2022-09-09T17:56:40;16.00;99.90